createdAt,value
2018-02-15T00:02:03.162Z,9.05
2018-02-15T00:04:29.029Z,7.47
2018-02-15T00:06:54.904Z,7.57
2018-02-15T00:09:20.757Z,9.77
2018-02-15T00:11:47.474Z,8.30
2018-02-15T00:14:13.350Z,7.75
2018-02-15T00:16:42.265Z,7.33
2018-02-15T00:19:08.132Z,8.23
2018-02-15T00:21:36.983Z,8.37
2018-02-15T00:24:02.836Z,8.95
2018-02-15T00:26:32.254Z,10.27
2018-02-15T00:28:58.094Z,8.45
2018-02-15T00:31:27.270Z,8.03
2018-02-15T00:33:53.125Z,7.82
2018-02-15T00:36:22.548Z,8.57
2018-02-15T00:38:48.427Z,7.72
2018-02-15T00:41:14.270Z,7.40
2018-02-15T00:43:40.148Z,7.80
2018-02-15T00:46:05.974Z,7.83
2018-02-15T00:48:33.093Z,8.43
2018-02-15T00:50:58.970Z,7.95
2018-02-15T00:53:28.520Z,6.80
2018-02-15T00:55:54.354Z,8.13
2018-02-15T00:58:23.676Z,9.40
2018-02-15T01:00:49.534Z,8.40
2018-02-15T01:03:18.567Z,6.93
2018-02-15T01:05:44.431Z,8.57
2018-02-15T01:08:13.443Z,7.97
2018-02-15T01:10:39.293Z,8.25
2018-02-15T01:13:06.128Z,8.57
2018-02-15T01:15:31.960Z,9.35
2018-02-15T01:17:57.818Z,8.50
2018-02-15T01:20:23.675Z,8.67
2018-02-15T01:22:49.501Z,8.40
2018-02-15T01:25:18.887Z,8.10
2018-02-15T01:27:44.744Z,8.95
2018-02-15T01:30:12.514Z,8.87
2018-02-15T01:32:38.357Z,6.53
2018-02-15T01:37:35.117Z,7.25
2018-02-15T01:40:02.034Z,7.90
2018-02-15T01:42:27.900Z,7.00
2018-02-15T01:47:24.661Z,7.25
2018-02-15T01:50:09.723Z,6.60
2018-02-15T01:52:35.591Z,7.95
2018-02-15T01:55:01.445Z,7.63
2018-02-15T01:57:27.338Z,7.77
2018-02-15T01:59:53.153Z,6.60
2018-02-15T02:02:19.046Z,6.47
2018-02-15T02:04:44.877Z,7.60
2018-02-15T02:07:10.715Z,7.83
2018-02-15T02:09:36.578Z,6.97
2018-02-15T02:12:02.408Z,7.00
2018-02-15T02:14:28.243Z,7.87
2018-02-15T02:16:54.074Z,7.27
2018-02-15T02:19:19.942Z,5.73
2018-02-15T02:21:45.782Z,6.27
2018-02-15T02:24:11.658Z,6.60
2018-02-15T02:26:37.497Z,5.33
2018-02-15T02:29:03.413Z,6.50
2018-02-15T02:31:29.265Z,6.33
2018-02-15T02:33:55.093Z,5.83
2018-02-15T02:36:20.955Z,6.40
2018-02-15T02:38:48.337Z,6.33
2018-02-15T02:41:14.157Z,6.07
2018-02-15T02:46:10.898Z,6.60
2018-02-15T02:48:38.271Z,5.47
2018-02-15T02:51:04.109Z,6.87
2018-02-15T02:53:32.861Z,5.70
2018-02-15T02:55:58.682Z,6.60
2018-02-15T02:58:28.974Z,6.70
2018-02-15T03:00:54.825Z,7.45
2018-02-15T03:03:22.480Z,6.73
2018-02-15T03:05:48.319Z,6.30
2018-02-15T03:08:14.161Z,8.00
2018-02-15T03:10:40.022Z,6.27
2018-02-15T03:13:05.864Z,6.30
2018-02-15T03:15:35.544Z,5.40
2018-02-15T03:18:01.375Z,7.62
2018-02-15T03:20:30.675Z,6.83
2018-02-15T03:22:56.516Z,6.12
2018-02-15T03:25:23.696Z,6.03
2018-02-15T03:27:49.563Z,5.53
2018-02-15T03:30:18.790Z,6.97
2018-02-15T03:32:44.659Z,6.55
2018-02-15T03:35:14.528Z,6.23
2018-02-15T03:37:40.389Z,5.70
2018-02-15T03:40:07.551Z,6.83
2018-02-15T03:42:33.393Z,6.57
2018-02-15T03:44:59.257Z,5.37
2018-02-15T03:47:25.093Z,6.07
2018-02-15T03:49:50.932Z,6.33
2018-02-15T03:52:20.356Z,5.60
2018-02-15T03:54:46.199Z,5.80
2018-02-15T03:57:15.657Z,5.73
2018-02-15T03:59:41.490Z,6.20
2018-02-15T04:02:09.175Z,5.10
2018-02-15T04:04:35.034Z,5.40
2018-02-15T04:07:04.522Z,5.97
2018-02-15T04:09:30.375Z,5.70
2018-02-15T04:11:59.640Z,5.63
2018-02-15T04:14:25.509Z,5.03
2018-02-15T04:16:54.457Z,5.90
2018-02-15T04:19:20.298Z,6.18
2018-02-15T04:21:46.161Z,5.30
2018-02-15T04:24:12.033Z,6.40
2018-02-15T04:26:37.875Z,5.00
2018-02-15T04:29:05.156Z,5.73
2018-02-15T04:31:30.992Z,5.87
2018-02-15T04:34:00.115Z,5.23
2018-02-15T04:36:25.958Z,5.45
2018-02-15T04:38:55.524Z,6.60
2018-02-15T04:41:21.343Z,6.47
2018-02-15T04:43:50.298Z,5.70
2018-02-15T04:46:16.146Z,5.22
2018-02-15T04:48:43.963Z,5.87
2018-02-15T04:51:09.821Z,6.53
2018-02-15T04:53:38.902Z,5.97
2018-02-15T04:56:04.803Z,5.62
2018-02-15T04:58:30.734Z,6.63
2018-02-15T05:00:56.587Z,5.60
2018-02-15T05:03:22.444Z,6.10
2018-02-15T05:05:49.749Z,5.13
2018-02-15T05:08:15.580Z,6.03
2018-02-15T05:10:44.744Z,7.37
2018-02-15T05:13:10.571Z,6.82
2018-02-15T05:15:39.664Z,6.63
2018-02-15T05:18:05.560Z,7.12
2018-02-15T05:20:34.492Z,7.07
2018-02-15T05:23:00.331Z,6.37
2018-02-15T05:25:29.463Z,6.93
2018-02-15T05:27:55.283Z,6.20
2018-02-15T05:30:24.329Z,6.57
2018-02-15T05:32:50.209Z,6.97
2018-02-15T05:35:16.068Z,6.50
2018-02-15T05:37:41.886Z,7.20
2018-02-15T05:40:07.752Z,6.90
2018-02-15T05:42:35.235Z,5.50
2018-02-15T05:45:01.077Z,6.28
2018-02-15T05:47:30.262Z,6.80
2018-02-15T05:49:56.121Z,7.07
2018-02-15T05:52:25.857Z,7.00
2018-02-15T05:54:51.719Z,5.28
2018-02-15T05:57:20.691Z,6.00
2018-02-15T05:59:46.539Z,5.78
2018-02-15T06:02:15.545Z,5.90
2018-02-15T06:04:41.372Z,5.70
2018-02-15T06:07:08.855Z,4.87
2018-02-15T06:09:34.753Z,6.45
2018-02-15T06:12:00.613Z,6.83
2018-02-15T06:14:26.486Z,5.27
2018-02-15T06:16:52.436Z,5.50
2018-02-15T06:19:21.427Z,5.83
2018-02-15T06:21:47.326Z,4.95
2018-02-15T06:24:14.933Z,5.17
2018-02-15T06:26:40.831Z,4.90
2018-02-15T06:31:37.665Z,4.85
2018-02-15T06:34:05.097Z,4.60
2018-02-15T06:36:31.020Z,4.80
2018-02-15T06:39:00.135Z,4.20
2018-02-15T06:41:26.022Z,4.75
2018-02-15T06:43:55.035Z,4.13
2018-02-15T06:46:20.938Z,5.57
2018-02-15T06:48:46.830Z,3.50
2018-02-15T06:51:12.709Z,4.43
2018-02-15T06:53:38.609Z,4.13
2018-02-15T06:56:06.039Z,4.47
2018-02-15T06:58:31.920Z,3.65
2018-02-15T07:01:00.857Z,4.00
2018-02-15T07:03:26.769Z,4.75
2018-02-15T07:05:55.989Z,5.60
2018-02-15T07:08:21.886Z,4.65
2018-02-15T07:10:50.909Z,4.97
2018-02-15T07:13:16.792Z,5.22
2018-02-15T07:15:45.820Z,4.30
2018-02-15T07:18:11.728Z,5.35
2018-02-15T07:20:40.950Z,4.80
2018-02-15T07:23:06.846Z,5.85
2018-02-15T07:25:32.742Z,5.60
2018-02-15T07:27:58.600Z,5.17
2018-02-15T07:30:24.479Z,4.87
2018-02-15T07:32:51.609Z,6.87
2018-02-15T07:35:17.487Z,6.22
2018-02-15T07:37:46.515Z,6.80
2018-02-15T07:40:12.421Z,6.55
2018-02-15T07:42:41.696Z,6.77
2018-02-15T07:45:07.572Z,7.37
2018-02-15T07:47:37.031Z,7.50
2018-02-15T07:50:02.958Z,5.87
2018-02-15T07:52:30.072Z,7.43
2018-02-15T07:54:55.990Z,6.87
2018-02-15T07:57:24.792Z,7.13
2018-02-15T07:59:50.688Z,7.90
2018-02-15T08:02:16.568Z,6.60
2018-02-15T08:04:42.468Z,7.50
2018-02-15T08:07:08.380Z,7.33
2018-02-15T08:09:36.269Z,7.27
2018-02-15T08:12:02.152Z,8.82
2018-02-15T08:14:31.840Z,7.93
2018-02-15T08:16:57.705Z,9.93
2018-02-15T08:19:27.293Z,9.37
2018-02-15T08:21:53.150Z,9.95
2018-02-15T08:24:22.259Z,9.40
2018-02-15T08:26:48.144Z,10.88
2018-02-15T08:29:17.117Z,11.63
2018-02-15T08:31:42.981Z,11.68
2018-02-15T08:34:10.337Z,13.00
2018-02-15T08:36:36.225Z,12.07
2018-02-15T08:39:02.135Z,10.70
2018-02-15T08:41:28.050Z,10.97
2018-02-15T08:43:53.909Z,8.57
2018-02-15T08:46:23.342Z,13.00
2018-02-15T08:48:49.261Z,12.15
2018-02-15T08:51:16.816Z,12.37
2018-02-15T08:53:42.727Z,9.13
2018-02-15T08:56:12.314Z,13.47
2018-02-15T08:58:38.181Z,12.60
2018-02-15T09:01:07.558Z,12.43
2018-02-15T09:03:33.562Z,13.30
2018-02-15T09:06:00.536Z,12.85
2018-02-15T09:08:26.403Z,13.75
2018-02-15T09:10:55.723Z,12.27
2018-02-15T09:13:21.654Z,15.45
2018-02-15T09:15:47.555Z,14.73
2018-02-15T09:18:13.468Z,11.87
2018-02-15T09:20:39.375Z,12.97
2018-02-15T09:23:07.206Z,13.37
2018-02-15T09:25:33.070Z,14.35
2018-02-15T09:28:01.738Z,11.20
2018-02-15T09:30:27.648Z,13.07
2018-02-15T09:32:56.380Z,11.70
2018-02-15T09:35:22.261Z,11.40
2018-02-15T09:37:51.648Z,10.93
2018-02-15T09:40:17.547Z,11.80
2018-02-15T09:42:46.700Z,10.97
2018-02-15T09:45:12.565Z,11.90
2018-02-15T09:47:42.072Z,12.27
2018-02-15T09:50:07.996Z,13.02
2018-02-15T09:52:33.892Z,12.20
2018-02-15T09:54:59.812Z,13.37
2018-02-15T09:57:25.689Z,10.97
2018-02-15T09:59:53.102Z,11.20
2018-02-15T10:02:18.990Z,13.02
2018-02-15T10:04:47.965Z,12.50
2018-02-15T10:07:13.857Z,10.80
2018-02-15T10:09:43.076Z,11.10
2018-02-15T10:12:08.987Z,10.90
2018-02-15T10:14:36.672Z,11.97
2018-02-15T10:17:02.579Z,11.70
2018-02-15T10:19:31.862Z,13.77
2018-02-15T10:21:57.759Z,11.45
2018-02-15T10:24:26.956Z,11.73
2018-02-15T10:26:52.833Z,13.13
2018-02-15T10:29:18.728Z,11.17
2018-02-15T10:31:44.611Z,11.77
2018-02-15T10:34:10.494Z,13.47
2018-02-15T10:36:37.553Z,12.97
2018-02-15T10:39:03.477Z,12.93
2018-02-15T10:41:32.338Z,11.87
2018-02-15T10:43:58.242Z,13.20
2018-02-15T10:46:26.965Z,16.73
2018-02-15T10:48:52.853Z,14.38
2018-02-15T10:51:22.570Z,14.73
2018-02-15T10:53:48.458Z,15.23
2018-02-15T10:56:17.987Z,15.50
2018-02-15T10:58:43.893Z,16.87
2018-02-15T11:01:17.658Z,14.77
2018-02-15T11:03:43.581Z,15.52
2018-02-15T11:06:09.436Z,14.90
2018-02-15T11:08:35.349Z,14.70
2018-02-15T11:11:01.226Z,15.27
2018-02-15T11:13:27.130Z,16.90
2018-02-15T11:15:53.019Z,16.50
2018-02-15T11:18:18.898Z,18.40
2018-02-15T11:20:44.791Z,19.10
2018-02-15T11:23:12.395Z,16.80
2018-02-15T11:25:38.305Z,16.95
2018-02-15T11:28:07.142Z,17.13
2018-02-15T11:30:33.057Z,17.37
2018-02-15T11:33:01.764Z,17.73
2018-02-15T11:35:27.667Z,19.73
2018-02-15T11:37:57.141Z,20.13
2018-02-15T11:40:23.066Z,17.52
2018-02-15T11:42:48.935Z,19.87
2018-02-15T11:45:14.798Z,17.87
2018-02-15T11:47:40.781Z,20.17
2018-02-15T11:50:08.129Z,18.62
2018-02-15T11:52:34.062Z,17.62
2018-02-15T11:55:03.468Z,19.23
2018-02-15T11:57:29.357Z,21.58
2018-02-15T11:59:58.797Z,19.23
2018-02-15T12:02:24.690Z,19.65
2018-02-15T12:04:52.296Z,19.07
2018-02-15T12:07:18.191Z,21.05
2018-02-15T12:09:47.373Z,21.50
2018-02-15T12:12:13.305Z,18.67
2018-02-15T12:14:42.907Z,19.47
2018-02-15T12:17:08.818Z,18.85
2018-02-15T12:19:34.707Z,20.50
2018-02-15T12:22:00.602Z,19.97
2018-02-15T12:24:26.514Z,21.43
2018-02-15T12:26:53.952Z,19.00
2018-02-15T12:29:19.866Z,18.92
2018-02-15T12:31:49.601Z,17.90
2018-02-15T12:34:15.503Z,18.30
2018-02-15T12:36:44.730Z,20.47
2018-02-15T12:39:10.647Z,19.02
2018-02-15T12:41:37.673Z,18.73
2018-02-15T12:44:03.562Z,18.02
2018-02-15T12:46:32.233Z,20.17
2018-02-15T12:48:58.204Z,18.62
2018-02-15T12:51:27.605Z,17.33
2018-02-15T12:53:53.548Z,18.67
2018-02-15T12:56:19.446Z,19.03
2018-02-15T12:58:45.317Z,18.30
2018-02-15T13:01:11.209Z,19.77
2018-02-15T13:03:38.696Z,17.40
2018-02-15T13:06:04.605Z,19.92
2018-02-15T13:08:34.024Z,18.97
2018-02-15T13:10:59.914Z,19.42
2018-02-15T13:13:30.817Z,19.17
2018-02-15T13:16:09.047Z,16.77
2018-02-15T13:18:34.943Z,17.58
2018-02-15T13:21:00.858Z,21.37
2018-02-15T13:23:26.766Z,17.60
2018-02-15T13:25:52.694Z,19.50
2018-02-15T13:28:29.780Z,17.83
2018-02-15T13:30:55.665Z,22.45
2018-02-15T13:33:21.553Z,26.30
2018-02-15T13:35:47.433Z,20.40
2018-02-15T13:38:13.294Z,23.60
2018-02-15T13:40:39.190Z,20.60
2018-02-15T13:43:05.088Z,23.90
2018-02-15T13:45:30.968Z,23.13
2018-02-15T13:47:56.859Z,19.63
2018-02-15T13:50:22.754Z,17.40
2018-02-15T13:52:48.670Z,18.33
2018-02-15T13:55:14.582Z,19.10
2018-02-15T13:57:40.448Z,17.73
2018-02-15T14:00:06.339Z,17.80
2018-02-15T14:02:32.210Z,18.27
2018-02-15T14:04:58.099Z,17.43
2018-02-15T14:07:23.951Z,19.60
2018-02-15T14:09:49.847Z,18.60
2018-02-15T14:12:15.779Z,16.27
2018-02-15T14:14:41.684Z,17.77
2018-02-15T14:17:11.420Z,17.23
2018-02-15T14:19:37.295Z,16.92
2018-02-15T14:22:04.290Z,16.20
2018-02-15T14:24:30.165Z,16.50
2018-02-15T14:26:58.967Z,16.10
2018-02-15T14:29:24.858Z,17.05
2018-02-15T14:31:54.514Z,15.90
2018-02-15T14:34:20.389Z,14.15
2018-02-15T14:36:49.918Z,13.70
2018-02-15T14:39:15.809Z,15.32
2018-02-15T14:41:44.874Z,15.63
2018-02-15T14:44:10.774Z,13.27
2018-02-15T14:46:36.646Z,13.73
2018-02-15T14:49:02.542Z,14.17
2018-02-15T14:51:28.430Z,10.30
2018-02-15T14:53:54.916Z,12.20
2018-02-15T14:56:20.790Z,10.40
2018-02-15T14:58:50.269Z,11.13
2018-02-15T15:01:16.144Z,11.73
2018-02-15T15:03:45.309Z,11.50
2018-02-15T15:06:11.203Z,12.45
2018-02-15T15:08:40.577Z,13.97
2018-02-15T15:11:06.483Z,11.20
2018-02-15T15:13:33.650Z,11.53
2018-02-15T15:15:59.526Z,11.77
2018-02-15T15:18:28.899Z,11.40
2018-02-15T15:20:54.818Z,9.90
2018-02-15T15:23:20.715Z,10.70
2018-02-15T15:25:46.614Z,12.90
2018-02-15T15:28:12.465Z,12.37
2018-02-15T15:30:39.831Z,11.57
2018-02-15T15:33:05.705Z,10.38
2018-02-15T15:38:02.466Z,10.70
2018-02-15T15:40:30.046Z,11.00
2018-02-15T15:42:55.933Z,10.50
2018-02-15T15:45:25.108Z,9.87
2018-02-15T15:47:51.024Z,10.60
2018-02-15T15:50:20.343Z,9.27
2018-02-15T15:52:46.238Z,9.23
2018-02-15T15:55:13.558Z,10.63
2018-02-15T15:57:39.430Z,13.52
2018-02-15T16:00:05.347Z,12.20
2018-02-15T16:02:31.252Z,8.17
2018-02-15T16:04:57.138Z,8.90
2018-02-15T16:07:26.839Z,10.47
2018-02-15T16:09:52.722Z,8.15
2018-02-15T16:12:21.783Z,8.67
2018-02-15T16:14:47.680Z,7.18
2018-02-15T16:17:15.602Z,8.60
2018-02-15T16:19:41.465Z,6.85
2018-02-15T16:22:10.751Z,7.90
2018-02-15T16:24:36.627Z,6.72
2018-02-15T16:27:05.927Z,6.17
2018-02-15T16:29:31.809Z,8.02
2018-02-15T16:31:58.857Z,6.27
2018-02-15T16:34:24.764Z,7.80
2018-02-15T16:36:50.628Z,7.40
2018-02-15T16:39:16.514Z,5.93
2018-02-15T16:41:42.422Z,6.87
2018-02-15T16:44:11.991Z,7.67
2018-02-15T16:46:37.894Z,5.97
2018-02-15T16:49:07.039Z,8.73
2018-02-15T16:51:32.899Z,9.55
2018-02-15T16:54:00.293Z,7.50
2018-02-15T16:56:26.178Z,7.15
2018-02-15T16:58:55.361Z,6.93
2018-02-15T17:01:21.283Z,20.65
2018-02-15T17:03:50.534Z,9.47
2018-02-15T17:06:16.451Z,10.73
2018-02-15T17:08:46.094Z,8.60
2018-02-15T17:11:12.043Z,7.65
2018-02-15T17:13:37.916Z,6.57
2018-02-15T17:16:03.798Z,15.40
2018-02-15T17:18:29.682Z,7.20
2018-02-15T17:20:55.860Z,15.87
2018-02-15T17:23:21.742Z,7.87
2018-02-15T17:25:50.671Z,6.57
2018-02-15T17:28:16.548Z,10.73
2018-02-15T17:30:46.402Z,15.90
2018-02-15T17:33:12.299Z,10.60
2018-02-15T17:35:41.883Z,5.80
2018-02-15T17:38:07.795Z,14.18
2018-02-15T17:40:35.212Z,6.60
2018-02-15T17:43:01.091Z,9.43
2018-02-15T17:45:30.039Z,10.73
2018-02-15T17:47:55.918Z,12.05
2018-02-15T17:50:21.798Z,5.37
2018-02-15T17:52:47.670Z,3.80
2018-02-15T17:55:13.544Z,3.70
2018-02-15T17:57:42.475Z,4.00
2018-02-15T18:00:08.359Z,4.90
2018-02-15T18:02:37.698Z,2.77
2018-02-15T18:05:03.560Z,4.85
2018-02-15T18:07:31.225Z,7.40
2018-02-15T18:09:57.123Z,4.50
2018-02-15T18:12:26.833Z,10.10
2018-02-15T18:14:52.721Z,8.93
2018-02-15T18:17:21.907Z,6.30
2018-02-15T18:19:47.786Z,7.95
2018-02-15T18:22:14.984Z,5.70
2018-02-15T18:24:40.851Z,3.17
2018-02-15T18:27:06.741Z,6.37
2018-02-15T18:29:32.612Z,6.40
2018-02-15T18:31:58.489Z,4.13
2018-02-15T18:34:27.510Z,5.00
2018-02-15T18:36:53.404Z,4.37
2018-02-15T18:39:22.843Z,4.80
2018-02-15T18:41:48.712Z,5.55
2018-02-15T18:44:16.442Z,7.57
2018-02-15T18:46:42.362Z,6.32
2018-02-15T18:49:11.791Z,6.53
2018-02-15T18:51:37.736Z,8.23
2018-02-15T18:54:06.828Z,18.30
2018-02-15T18:56:32.702Z,8.25
2018-02-15T18:59:01.830Z,7.60
2018-02-15T19:01:27.706Z,11.60
2018-02-15T19:03:53.696Z,10.17
2018-02-15T19:06:19.653Z,22.83
2018-02-15T19:08:45.563Z,17.50
2018-02-15T19:11:11.797Z,10.67
2018-02-15T19:13:37.691Z,11.80
2018-02-15T19:16:06.716Z,11.60
2018-02-15T19:18:32.626Z,13.20
2018-02-15T19:21:01.444Z,9.90
2018-02-15T19:23:27.315Z,11.48
2018-02-15T19:25:56.167Z,12.70
2018-02-15T19:28:22.046Z,6.75
2018-02-15T19:30:51.922Z,8.37
2018-02-15T19:33:17.827Z,6.53
2018-02-15T19:35:45.671Z,6.70
2018-02-15T19:38:11.520Z,5.93
2018-02-15T19:40:37.412Z,6.90
2018-02-15T19:43:03.286Z,7.37
2018-02-15T19:45:29.159Z,9.47
2018-02-15T19:47:58.595Z,7.00
2018-02-15T19:50:24.486Z,8.90
2018-02-15T19:52:52.049Z,16.90
2018-02-15T19:55:17.902Z,10.13
2018-02-15T19:57:46.638Z,11.43
2018-02-15T20:00:12.501Z,58.83
2018-02-15T20:02:41.198Z,56.47
2018-02-15T20:05:07.153Z,31.77
2018-02-15T20:07:36.700Z,29.13
2018-02-15T20:10:02.578Z,16.50
2018-02-15T20:12:32.186Z,7.13
2018-02-15T20:14:58.085Z,7.47
2018-02-15T20:17:24.003Z,8.07
2018-02-15T20:19:56.028Z,11.37
2018-02-15T20:22:21.928Z,12.05
2018-02-15T20:24:47.848Z,8.57
2018-02-15T20:27:19.869Z,8.57
2018-02-15T20:29:45.753Z,9.00
2018-02-15T20:32:11.651Z,7.83
2018-02-15T20:34:37.543Z,6.70
2018-02-15T20:37:03.452Z,6.50
2018-02-15T20:39:35.534Z,4.47
2018-02-15T20:42:01.436Z,9.80
2018-02-15T20:44:27.334Z,9.10
2018-02-15T20:46:53.234Z,9.53
2018-02-15T20:49:25.145Z,7.33
2018-02-15T20:51:57.184Z,8.10
2018-02-15T20:54:29.288Z,7.70
2018-02-15T20:56:55.259Z,18.00
2018-02-15T20:59:21.148Z,13.03
2018-02-15T21:01:47.066Z,14.00
2018-02-15T21:04:12.934Z,12.00
2018-02-15T21:06:38.838Z,11.37
2018-02-15T21:09:05.554Z,12.32
2018-02-15T21:11:31.461Z,11.30
2018-02-15T21:13:57.384Z,9.30
2018-02-15T21:16:23.262Z,7.87
2018-02-15T21:18:49.155Z,8.87
2018-02-15T21:21:15.034Z,7.37
2018-02-15T21:23:40.894Z,6.77
2018-02-15T21:26:06.818Z,8.10
2018-02-15T21:28:32.685Z,7.03
2018-02-15T21:30:58.565Z,8.00
2018-02-15T21:33:24.757Z,6.90
2018-02-15T21:35:50.675Z,6.18
2018-02-15T21:38:16.585Z,5.80
2018-02-15T21:40:42.569Z,6.03
2018-02-15T21:43:08.469Z,9.50
2018-02-15T21:45:34.362Z,14.73
2018-02-15T21:48:04.068Z,20.77
2018-02-15T21:50:29.972Z,19.75
2018-02-15T21:52:57.370Z,25.30
2018-02-15T21:55:23.255Z,57.67
2018-02-15T21:57:52.152Z,29.93
2018-02-15T22:00:18.051Z,65.07
2018-02-15T22:02:47.621Z,51.00
2018-02-15T22:05:13.485Z,42.58
2018-02-15T22:07:39.362Z,33.67
2018-02-15T22:10:05.246Z,25.03
2018-02-15T22:12:31.131Z,26.40
2018-02-15T22:14:58.658Z,25.57
2018-02-15T22:17:24.577Z,25.52
2018-02-15T22:19:54.205Z,29.17
2018-02-15T22:22:20.082Z,23.52
2018-02-15T22:24:48.923Z,13.60
2018-02-15T22:27:14.762Z,10.25
2018-02-15T22:29:44.047Z,9.90
2018-02-15T22:32:09.869Z,14.63
2018-02-15T22:34:39.068Z,16.33
2018-02-15T22:37:04.900Z,13.18
2018-02-15T22:39:31.873Z,13.97
2018-02-15T22:41:57.727Z,12.85
2018-02-15T22:44:23.590Z,11.70
2018-02-15T22:46:49.451Z,12.50
2018-02-15T22:49:15.334Z,8.70
2018-02-15T22:51:44.361Z,4.97
2018-02-15T22:54:10.223Z,4.90
2018-02-15T22:56:39.637Z,3.73
2018-02-15T22:59:05.494Z,3.37
2018-02-15T23:01:34.833Z,3.60
2018-02-15T23:04:00.682Z,3.33
2018-02-15T23:06:27.870Z,3.90
2018-02-15T23:08:53.691Z,3.42
2018-02-15T23:11:22.469Z,4.40
2018-02-15T23:13:48.312Z,4.35
2018-02-15T23:18:45.088Z,5.00
2018-02-15T23:21:10.967Z,5.03
2018-02-15T23:23:36.803Z,5.33
2018-02-15T23:26:02.723Z,4.90
2018-02-15T23:28:29.634Z,4.63
2018-02-15T23:30:55.487Z,5.05
2018-02-15T23:33:24.977Z,3.87
2018-02-15T23:35:50.845Z,3.87
2018-02-15T23:38:20.029Z,2.70
2018-02-15T23:40:45.892Z,2.70
2018-02-15T23:43:14.865Z,3.63
2018-02-15T23:45:40.697Z,2.83
2018-02-15T23:48:07.897Z,3.50
2018-02-15T23:50:33.764Z,3.42
2018-02-15T23:53:02.694Z,3.03
2018-02-15T23:55:28.520Z,3.75
2018-02-15T23:57:54.378Z,2.97
